sensor_id;sensor_type;location;lat;lon;timestamp;temperature;humidity
31675;DHT22;18276;45.520;11.018;2022-09-27T00:01:17;15.30;99.90
31675;DHT22;18276;45.520;11.018;2022-09-27T00:03:44;15.30;99.90
31675;DHT22;18276;45.520;11.018;2022-09-27T00:06:19;15.40;99.90
31675;DHT22;18276;45.520;11.018;2022-09-27T00:08:48;15.40;99.90
31675;DHT22;18276;45.520;11.018;2022-09-27T00:11:35;15.40;99.90
31675;DHT22;18276;45.520;11.018;2022-09-27T00:14:04;15.50;99.90
31675;DHT22;18276;45.520;11.018;2022-09-27T00:16:34;15.50;99.90
31675;DHT22;18276;45.520;11.018;2022-09-27T00:19:03;15.50;99.90
31675;DHT22;18276;45.520;11.018;2022-09-27T00:21:31;15.50;99.90
31675;DHT22;18276;45.520;11.018;2022-09-27T00:23:58;15.50;99.90
31675;DHT22;18276;45.520;11.018;2022-09-27T00:26:26;15.60;99.90
31675;DHT22;18276;45.520;11.018;2022-09-27T00:28:53;15.60;99.90
31675;DHT22;18276;45.520;11.018;2022-09-27T00:31:25;15.60;99.90
31675;DHT22;18276;45.520;11.018;2022-09-27T00:33:57;15.60;99.90
31675;DHT22;18276;45.520;11.018;2022-09-27T00:36:25;15.60;99.90
31675;DHT22;18276;45.520;11.018;2022-09-27T00:38:53;15.70;99.90
31675;DHT22;18276;45.520;11.018;2022-09-27T00:41:26;15.70;99.90
31675;DHT22;18276;45.520;11.018;2022-09-27T00:43:56;15.80;99.90
31675;DHT22;18276;45.520;11.018;2022-09-27T00:46:37;15.80;99.90
31675;DHT22;18276;45.520;11.018;2022-09-27T00:49:22;15.90;99.90
31675;DHT22;18276;45.520;11.018;2022-09-27T00:51:54;15.90;99.90
31675;DHT22;18276;45.520;11.018;2022-09-27T00:54:24;15.90;99.90
31675;DHT22;18276;45.520;11.018;2022-09-27T00:56:52;15.90;99.90
31675;DHT22;18276;45.520;11.018;2022-09-27T01:01:52;15.90;99.90
31675;DHT22;18276;45.520;11.018;2022-09-27T01:04:26;16.00;99.90
31675;DHT22;18276;45.520;11.018;2022-09-27T01:06:53;15.90;99.90
31675;DHT22;18276;45.520;11.018;2022-09-27T01:09:21;15.90;99.90
31675;DHT22;18276;45.520;11.018;2022-09-27T01:29:11;15.90;99.90
31675;DHT22;18276;45.520;11.018;2022-09-27T01:31:47;15.90;99.90
31675;DHT22;18276;45.520;11.018;2022-09-27T01:34:27;15.90;99.90
31675;DHT22;18276;45.520;11.018;2022-09-27T01:40:13;15.90;99.90
31675;DHT22;18276;45.520;11.018;2022-09-27T01:43:16;15.80;99.90
31675;DHT22;18276;45.520;11.018;2022-09-27T01:46:16;15.80;99.90
31675;DHT22;18276;45.520;11.018;2022-09-27T01:49:04;15.80;99.90
31675;DHT22;18276;45.520;11.018;2022-09-27T01:51:47;15.80;99.90
31675;DHT22;18276;45.520;11.018;2022-09-27T01:54:28;15.80;99.90
31675;DHT22;18276;45.520;11.018;2022-09-27T01:57:32;15.80;99.90
31675;DHT22;18276;45.520;11.018;2022-09-27T02:00:08;15.80;99.90
31675;DHT22;18276;45.520;11.018;2022-09-27T02:03:00;15.80;99.90
31675;DHT22;18276;45.520;11.018;2022-09-27T02:05:41;15.80;99.90
31675;DHT22;18276;45.520;11.018;2022-09-27T02:08:42;15.80;99.90
31675;DHT22;18276;45.520;11.018;2022-09-27T02:11:19;15.80;99.90
31675;DHT22;18276;45.520;11.018;2022-09-27T02:14:10;15.80;99.90
31675;DHT22;18276;45.520;11.018;2022-09-27T02:16:49;15.80;99.90
31675;DHT22;18276;45.520;11.018;2022-09-27T02:24:59;15.70;99.90
31675;DHT22;18276;45.520;11.018;2022-09-27T02:27:41;15.80;99.90
31675;DHT22;18276;45.520;11.018;2022-09-27T02:30:14;15.80;99.90
31675;DHT22;18276;45.520;11.018;2022-09-27T02:32:45;15.80;99.90
31675;DHT22;18276;45.520;11.018;2022-09-27T02:35:20;15.80;99.90
31675;DHT22;18276;45.520;11.018;2022-09-27T02:37:49;15.80;99.90
31675;DHT22;18276;45.520;11.018;2022-09-27T02:40:17;15.80;99.90
31675;DHT22;18276;45.520;11.018;2022-09-27T02:42:46;15.80;99.90
31675;DHT22;18276;45.520;11.018;2022-09-27T02:45:15;15.80;99.90
31675;DHT22;18276;45.520;11.018;2022-09-27T03:00:20;15.80;99.90
31675;DHT22;18276;45.520;11.018;2022-09-27T03:05:51;15.70;99.90
31675;DHT22;18276;45.520;11.018;2022-09-27T03:08:20;15.80;99.90
31675;DHT22;18276;45.520;11.018;2022-09-27T03:10:47;15.80;99.90
31675;DHT22;18276;45.520;11.018;2022-09-27T03:13:15;15.80;99.90
31675;DHT22;18276;45.520;11.018;2022-09-27T03:15:45;15.90;99.90
31675;DHT22;18276;45.520;11.018;2022-09-27T03:18:18;15.90;99.90
31675;DHT22;18276;45.520;11.018;2022-09-27T03:21:03;15.90;99.90
31675;DHT22;18276;45.520;11.018;2022-09-27T03:23:30;15.80;99.90
31675;DHT22;18276;45.520;11.018;2022-09-27T03:25:57;15.80;99.90
31675;DHT22;18276;45.520;11.018;2022-09-27T03:28:25;15.80;99.90
31675;DHT22;18276;45.520;11.018;2022-09-27T03:30:55;15.80;99.90
31675;DHT22;18276;45.520;11.018;2022-09-27T03:33:48;15.90;99.90
31675;DHT22;18276;45.520;11.018;2022-09-27T03:36:16;15.80;99.90
31675;DHT22;18276;45.520;11.018;2022-09-27T03:38:43;15.70;99.90
31675;DHT22;18276;45.520;11.018;2022-09-27T03:41:15;15.60;99.90
31675;DHT22;18276;45.520;11.018;2022-09-27T03:43:42;15.50;99.90
31675;DHT22;18276;45.520;11.018;2022-09-27T03:46:09;15.50;99.90
31675;DHT22;18276;45.520;11.018;2022-09-27T03:48:37;15.50;99.90
31675;DHT22;18276;45.520;11.018;2022-09-27T03:51:04;15.50;99.90
31675;DHT22;18276;45.520;11.018;2022-09-27T03:53:31;15.50;99.90
31675;DHT22;18276;45.520;11.018;2022-09-27T03:55:58;15.50;99.90
31675;DHT22;18276;45.520;11.018;2022-09-27T03:58:25;15.60;99.90
31675;DHT22;18276;45.520;11.018;2022-09-27T04:00:52;15.60;99.90
31675;DHT22;18276;45.520;11.018;2022-09-27T04:03:19;15.50;99.90
31675;DHT22;18276;45.520;11.018;2022-09-27T04:06:07;15.50;99.90
31675;DHT22;18276;45.520;11.018;2022-09-27T04:08:38;15.40;99.90
31675;DHT22;18276;45.520;11.018;2022-09-27T04:11:05;15.50;99.90
31675;DHT22;18276;45.520;11.018;2022-09-27T04:13:34;15.50;99.90
31675;DHT22;18276;45.520;11.018;2022-09-27T04:16:02;15.40;99.90
31675;DHT22;18276;45.520;11.018;2022-09-27T04:18:30;15.40;99.90
31675;DHT22;18276;45.520;11.018;2022-09-27T04:21:16;15.50;99.90
31675;DHT22;18276;45.520;11.018;2022-09-27T04:23:49;15.50;99.90
31675;DHT22;18276;45.520;11.018;2022-09-27T04:26:19;15.50;99.90
31675;DHT22;18276;45.520;11.018;2022-09-27T04:29:07;15.50;99.90
31675;DHT22;18276;45.520;11.018;2022-09-27T04:31:39;15.50;99.90
31675;DHT22;18276;45.520;11.018;2022-09-27T04:34:23;15.50;99.90
31675;DHT22;18276;45.520;11.018;2022-09-27T04:37:14;15.50;99.90
31675;DHT22;18276;45.520;11.018;2022-09-27T04:39:46;15.60;99.90
31675;DHT22;18276;45.520;11.018;2022-09-27T04:42:16;15.60;99.90
31675;DHT22;18276;45.520;11.018;2022-09-27T04:44:43;15.60;99.90
31675;DHT22;18276;45.520;11.018;2022-09-27T04:47:11;15.70;99.90
31675;DHT22;18276;45.520;11.018;2022-09-27T04:49:39;15.70;99.90
31675;DHT22;18276;45.520;11.018;2022-09-27T04:52:07;15.70;99.90
31675;DHT22;18276;45.520;11.018;2022-09-27T04:54:35;15.70;99.90
31675;DHT22;18276;45.520;11.018;2022-09-27T04:57:09;15.70;99.90
31675;DHT22;18276;45.520;11.018;2022-09-27T04:59:36;15.70;99.90
31675;DHT22;18276;45.520;11.018;2022-09-27T05:02:03;15.70;99.90
31675;DHT22;18276;45.520;11.018;2022-09-27T05:04:55;15.70;99.90
31675;DHT22;18276;45.520;11.018;2022-09-27T05:07:33;15.80;99.90
31675;DHT22;18276;45.520;11.018;2022-09-27T05:10:06;15.80;99.90
31675;DHT22;18276;45.520;11.018;2022-09-27T05:12:33;15.80;99.90
31675;DHT22;18276;45.520;11.018;2022-09-27T05:15:01;15.80;99.90
31675;DHT22;18276;45.520;11.018;2022-09-27T05:18:04;15.80;99.90
31675;DHT22;18276;45.520;11.018;2022-09-27T05:20:54;15.80;99.90
31675;DHT22;18276;45.520;11.018;2022-09-27T05:23:29;15.80;99.90
31675;DHT22;18276;45.520;11.018;2022-09-27T05:25:57;15.80;99.90
31675;DHT22;18276;45.520;11.018;2022-09-27T05:28:24;15.80;99.90
31675;DHT22;18276;45.520;11.018;2022-09-27T05:30:51;15.80;99.90
31675;DHT22;18276;45.520;11.018;2022-09-27T05:33:20;15.80;99.90
31675;DHT22;18276;45.520;11.018;2022-09-27T05:35:54;15.80;99.90
31675;DHT22;18276;45.520;11.018;2022-09-27T05:38:26;15.80;99.90
31675;DHT22;18276;45.520;11.018;2022-09-27T05:40:56;15.80;99.90
31675;DHT22;18276;45.520;11.018;2022-09-27T05:43:23;15.80;99.90
31675;DHT22;18276;45.520;11.018;2022-09-27T05:45:52;15.80;99.90
31675;DHT22;18276;45.520;11.018;2022-09-27T05:48:20;15.80;99.90
31675;DHT22;18276;45.520;11.018;2022-09-27T05:50:54;15.70;99.90
31675;DHT22;18276;45.520;11.018;2022-09-27T05:53:21;15.70;99.90
31675;DHT22;18276;45.520;11.018;2022-09-27T05:55:49;15.70;99.90
31675;DHT22;18276;45.520;11.018;2022-09-27T05:58:19;15.70;99.90
31675;DHT22;18276;45.520;11.018;2022-09-27T06:00:52;15.80;99.90
31675;DHT22;18276;45.520;11.018;2022-09-27T06:03:45;15.80;99.90
31675;DHT22;18276;45.520;11.018;2022-09-27T06:06:13;15.90;99.90
31675;DHT22;18276;45.520;11.018;2022-09-27T06:08:46;16.00;99.90
31675;DHT22;18276;45.520;11.018;2022-09-27T06:11:17;16.10;99.90
31675;DHT22;18276;45.520;11.018;2022-09-27T06:13:46;16.20;99.90
31675;DHT22;18276;45.520;11.018;2022-09-27T06:16:13;16.20;99.90
31675;DHT22;18276;45.520;11.018;2022-09-27T06:18:43;16.20;99.90
31675;DHT22;18276;45.520;11.018;2022-09-27T06:21:10;16.20;99.90
31675;DHT22;18276;45.520;11.018;2022-09-27T06:23:41;16.20;99.90
31675;DHT22;18276;45.520;11.018;2022-09-27T06:26:17;16.20;99.90
31675;DHT22;18276;45.520;11.018;2022-09-27T06:29:08;16.10;99.90
31675;DHT22;18276;45.520;11.018;2022-09-27T06:31:40;16.10;99.90
31675;DHT22;18276;45.520;11.018;2022-09-27T06:34:31;15.90;99.90
31675;DHT22;18276;45.520;11.018;2022-09-27T06:36:58;15.80;99.90
31675;DHT22;18276;45.520;11.018;2022-09-27T06:39:26;15.60;99.90
31675;DHT22;18276;45.520;11.018;2022-09-27T06:42:22;15.50;99.90
31675;DHT22;18276;45.520;11.018;2022-09-27T06:45:13;15.30;99.90
31675;DHT22;18276;45.520;11.018;2022-09-27T06:48:15;15.30;99.90
31675;DHT22;18276;45.520;11.018;2022-09-27T06:50:49;15.20;99.90
31675;DHT22;18276;45.520;11.018;2022-09-27T06:53:18;15.30;99.90
31675;DHT22;18276;45.520;11.018;2022-09-27T06:55:45;15.50;99.90
31675;DHT22;18276;45.520;11.018;2022-09-27T06:58:12;15.80;99.90
31675;DHT22;18276;45.520;11.018;2022-09-27T07:01:20;16.20;99.90
31675;DHT22;18276;45.520;11.018;2022-09-27T07:04:10;17.80;99.90
31675;DHT22;18276;45.520;11.018;2022-09-27T07:06:51;19.50;99.90
31675;DHT22;18276;45.520;11.018;2022-09-27T07:09:22;19.80;93.50
31675;DHT22;18276;45.520;11.018;2022-09-27T07:11:49;19.40;91.60
31675;DHT22;18276;45.520;11.018;2022-09-27T07:14:16;18.90;91.80
31675;DHT22;18276;45.520;11.018;2022-09-27T07:16:44;18.50;92.40
31675;DHT22;18276;45.520;11.018;2022-09-27T07:19:11;18.30;93.10
31675;DHT22;18276;45.520;11.018;2022-09-27T07:21:40;18.00;94.00
31675;DHT22;18276;45.520;11.018;2022-09-27T07:24:07;17.90;94.90
31675;DHT22;18276;45.520;11.018;2022-09-27T07:26:34;18.00;95.90
31675;DHT22;18276;45.520;11.018;2022-09-27T07:29:04;18.30;96.10
31675;DHT22;18276;45.520;11.018;2022-09-27T07:31:31;18.50;95.20
31675;DHT22;18276;45.520;11.018;2022-09-27T07:33:58;19.30;95.80
31675;DHT22;18276;45.520;11.018;2022-09-27T07:36:25;21.20;94.30
31675;DHT22;18276;45.520;11.018;2022-09-27T07:38:52;23.40;89.60
31675;DHT22;18276;45.520;11.018;2022-09-27T07:41:20;25.10;78.90
31675;DHT22;18276;45.520;11.018;2022-09-27T07:43:47;25.50;71.70
31675;DHT22;18276;45.520;11.018;2022-09-27T07:46:14;26.60;68.00
31675;DHT22;18276;45.520;11.018;2022-09-27T07:49:01;27.80;63.00
31675;DHT22;18276;45.520;11.018;2022-09-27T07:51:44;27.70;59.00
31675;DHT22;18276;45.520;11.018;2022-09-27T07:54:46;26.90;58.50
31675;DHT22;18276;45.520;11.018;2022-09-27T07:57:38;25.80;59.60
31675;DHT22;18276;45.520;11.018;2022-09-27T08:00:11;25.10;61.10
31675;DHT22;18276;45.520;11.018;2022-09-27T08:02:43;24.80;61.70
31675;DHT22;18276;45.520;11.018;2022-09-27T08:05:11;24.50;62.40
31675;DHT22;18276;45.520;11.018;2022-09-27T08:07:39;24.20;63.50
31675;DHT22;18276;45.520;11.018;2022-09-27T08:10:07;23.80;65.20
31675;DHT22;18276;45.520;11.018;2022-09-27T08:12:36;23.60;66.30
31675;DHT22;18276;45.520;11.018;2022-09-27T08:15:03;24.10;66.70
31675;DHT22;18276;45.520;11.018;2022-09-27T08:17:31;24.90;63.80
31675;DHT22;18276;45.520;11.018;2022-09-27T08:20:21;24.80;62.50
31675;DHT22;18276;45.520;11.018;2022-09-27T08:23:22;24.60;63.10
31675;DHT22;18276;45.520;11.018;2022-09-27T08:26:03;24.30;64.00
31675;DHT22;18276;45.520;11.018;2022-09-27T08:28:41;24.00;65.00
31675;DHT22;18276;45.520;11.018;2022-09-27T08:31:18;23.50;66.10
31675;DHT22;18276;45.520;11.018;2022-09-27T08:33:50;23.10;67.50
31675;DHT22;18276;45.520;11.018;2022-09-27T08:36:19;22.70;69.10
31675;DHT22;18276;45.520;11.018;2022-09-27T08:38:49;23.00;69.70
31675;DHT22;18276;45.520;11.018;2022-09-27T08:45:23;23.30;68.80
31675;DHT22;18276;45.520;11.018;2022-09-27T08:47:44;23.30;67.30
31675;DHT22;18276;45.520;11.018;2022-09-27T08:53:59;22.40;69.10
31675;DHT22;18276;45.520;11.018;2022-09-27T08:56:20;22.30;69.90
31675;DHT22;18276;45.520;11.018;2022-09-27T08:58:54;22.60;69.40
31675;DHT22;18276;45.520;11.018;2022-09-27T09:01:30;23.00;68.50
31675;DHT22;18276;45.520;11.018;2022-09-27T09:04:41;23.30;67.10
31675;DHT22;18276;45.520;11.018;2022-09-27T09:13:12;27.90;58.90
31675;DHT22;18276;45.520;11.018;2022-09-27T09:21:34;32.60;45.80
31675;DHT22;18276;45.520;11.018;2022-09-27T09:32:46;35.80;37.50
31675;DHT22;18276;45.520;11.018;2022-09-27T09:35:38;36.50;36.50
31675;DHT22;18276;45.520;11.018;2022-09-27T09:38:20;36.80;34.40
31675;DHT22;18276;45.520;11.018;2022-09-27T09:41:15;36.60;34.30
31675;DHT22;18276;45.520;11.018;2022-09-27T09:43:53;35.60;34.80
31675;DHT22;18276;45.520;11.018;2022-09-27T09:46:40;34.90;36.00
31675;DHT22;18276;45.520;11.018;2022-09-27T09:49:32;33.70;37.10
31675;DHT22;18276;45.520;11.018;2022-09-27T09:52:06;33.90;38.00
31675;DHT22;18276;45.520;11.018;2022-09-27T09:54:45;34.10;37.50
31675;DHT22;18276;45.520;11.018;2022-09-27T09:57:19;33.40;38.30
31675;DHT22;18276;45.520;11.018;2022-09-27T09:59:53;33.80;37.80
31675;DHT22;18276;45.520;11.018;2022-09-27T10:02:31;34.20;36.60
31675;DHT22;18276;45.520;11.018;2022-09-27T10:05:17;34.40;36.10
31675;DHT22;18276;45.520;11.018;2022-09-27T10:07:48;34.10;36.30
31675;DHT22;18276;45.520;11.018;2022-09-27T10:10:20;34.20;35.70
31675;DHT22;18276;45.520;11.018;2022-09-27T10:12:54;32.80;37.70
31675;DHT22;18276;45.520;11.018;2022-09-27T10:15:29;32.80;39.00
31675;DHT22;18276;45.520;11.018;2022-09-27T10:17:57;33.70;38.60
31675;DHT22;18276;45.520;11.018;2022-09-27T10:20:37;33.80;38.80
31675;DHT22;18276;45.520;11.018;2022-09-27T10:23:20;34.60;37.60
31675;DHT22;18276;45.520;11.018;2022-09-27T10:26:20;34.00;35.80
31675;DHT22;18276;45.520;11.018;2022-09-27T10:28:49;32.00;38.00
31675;DHT22;18276;45.520;11.018;2022-09-27T10:31:23;30.60;41.20
31675;DHT22;18276;45.520;11.018;2022-09-27T10:34:02;30.60;41.30
31675;DHT22;18276;45.520;11.018;2022-09-27T10:36:39;31.30;42.20
31675;DHT22;18276;45.520;11.018;2022-09-27T10:39:20;32.80;40.50
31675;DHT22;18276;45.520;11.018;2022-09-27T10:41:48;33.60;38.10
31675;DHT22;18276;45.520;11.018;2022-09-27T10:44:36;34.20;37.30
31675;DHT22;18276;45.520;11.018;2022-09-27T10:47:23;35.10;36.70
31675;DHT22;18276;45.520;11.018;2022-09-27T10:50:05;34.80;35.90
31675;DHT22;18276;45.520;11.018;2022-09-27T10:53:22;35.00;37.20
31675;DHT22;18276;45.520;11.018;2022-09-27T10:55:56;35.80;36.60
31675;DHT22;18276;45.520;11.018;2022-09-27T10:58:28;37.00;35.30
31675;DHT22;18276;45.520;11.018;2022-09-27T11:00:58;37.90;33.50
31675;DHT22;18276;45.520;11.018;2022-09-27T11:03:29;37.90;33.70
31675;DHT22;18276;45.520;11.018;2022-09-27T11:05:58;37.40;33.20
31675;DHT22;18276;45.520;11.018;2022-09-27T11:08:30;36.50;33.40
31675;DHT22;18276;45.520;11.018;2022-09-27T11:11:33;35.60;34.40
31675;DHT22;18276;45.520;11.018;2022-09-27T11:14:09;35.50;33.20
31675;DHT22;18276;45.520;11.018;2022-09-27T11:18:01;34.70;34.80
31675;DHT22;18276;45.520;11.018;2022-09-27T11:33:49;37.40;32.10
31675;DHT22;18276;45.520;11.018;2022-09-27T11:39:22;37.20;31.00
31675;DHT22;18276;45.520;11.018;2022-09-27T11:42:06;37.30;31.20
31675;DHT22;18276;45.520;11.018;2022-09-27T11:51:00;31.80;37.90
31675;DHT22;18276;45.520;11.018;2022-09-27T11:53:37;31.90;38.30
31675;DHT22;18276;45.520;11.018;2022-09-27T12:01:48;30.90;39.00
31675;DHT22;18276;45.520;11.018;2022-09-27T12:09:54;29.40;42.00
31675;DHT22;18276;45.520;11.018;2022-09-27T12:12:43;28.50;43.00
31675;DHT22;18276;45.520;11.018;2022-09-27T12:15:33;27.70;43.70
31675;DHT22;18276;45.520;11.018;2022-09-27T12:18:29;27.20;45.40
31675;DHT22;18276;45.520;11.018;2022-09-27T12:21:02;27.50;45.10
31675;DHT22;18276;45.520;11.018;2022-09-27T12:26:41;27.60;44.20
31675;DHT22;18276;45.520;11.018;2022-09-27T12:29:17;29.20;43.90
31675;DHT22;18276;45.520;11.018;2022-09-27T12:34:48;32.60;40.00
31675;DHT22;18276;45.520;11.018;2022-09-27T12:37:42;34.10;37.20
31675;DHT22;18276;45.520;11.018;2022-09-27T12:40:28;35.10;35.50
31675;DHT22;18276;45.520;11.018;2022-09-27T12:43:05;35.90;33.70
31675;DHT22;18276;45.520;11.018;2022-09-27T12:52:04;34.60;33.90
31675;DHT22;18276;45.520;11.018;2022-09-27T12:57:26;34.40;33.50
31675;DHT22;18276;45.520;11.018;2022-09-27T13:00:22;34.60;33.30
31675;DHT22;18276;45.520;11.018;2022-09-27T13:03:28;34.80;33.40
31675;DHT22;18276;45.520;11.018;2022-09-27T13:14:19;34.80;33.20
31675;DHT22;18276;45.520;11.018;2022-09-27T13:16:48;34.70;32.30
31675;DHT22;18276;45.520;11.018;2022-09-27T13:19:39;34.70;33.30
31675;DHT22;18276;45.520;11.018;2022-09-27T13:25:14;34.40;34.40
31675;DHT22;18276;45.520;11.018;2022-09-27T13:28:00;34.80;34.70
31675;DHT22;18276;45.520;11.018;2022-09-27T13:36:28;35.60;33.40
31675;DHT22;18276;45.520;11.018;2022-09-27T13:42:54;34.80;33.50
31675;DHT22;18276;45.520;11.018;2022-09-27T13:45:22;34.40;34.00
31675;DHT22;18276;45.520;11.018;2022-09-27T13:47:53;34.50;33.50
31675;DHT22;18276;45.520;11.018;2022-09-27T13:50:51;34.30;33.50
31675;DHT22;18276;45.520;11.018;2022-09-27T13:53:37;34.20;34.30
31675;DHT22;18276;45.520;11.018;2022-09-27T13:56:05;34.10;34.00
31675;DHT22;18276;45.520;11.018;2022-09-27T13:58:51;34.00;34.00
31675;DHT22;18276;45.520;11.018;2022-09-27T14:05:00;34.30;34.10
31675;DHT22;18276;45.520;11.018;2022-09-27T14:07:39;34.60;33.10
31675;DHT22;18276;45.520;11.018;2022-09-27T14:10:13;34.90;32.40
31675;DHT22;18276;45.520;11.018;2022-09-27T14:12:44;34.40;33.10
31675;DHT22;18276;45.520;11.018;2022-09-27T14:15:19;33.60;34.20
31675;DHT22;18276;45.520;11.018;2022-09-27T14:17:47;32.90;34.20
31675;DHT22;18276;45.520;11.018;2022-09-27T14:20:39;32.10;35.10
31675;DHT22;18276;45.520;11.018;2022-09-27T14:23:24;30.70;37.40
31675;DHT22;18276;45.520;11.018;2022-09-27T14:25:53;29.30;39.50
31675;DHT22;18276;45.520;11.018;2022-09-27T14:28:23;28.40;41.40
31675;DHT22;18276;45.520;11.018;2022-09-27T14:31:15;28.20;43.20
31675;DHT22;18276;45.520;11.018;2022-09-27T14:34:06;28.50;43.40
31675;DHT22;18276;45.520;11.018;2022-09-27T14:36:37;28.80;43.00
31675;DHT22;18276;45.520;11.018;2022-09-27T14:39:31;28.90;43.20
31675;DHT22;18276;45.520;11.018;2022-09-27T14:42:05;28.80;42.00
31675;DHT22;18276;45.520;11.018;2022-09-27T14:44:43;28.60;42.50
31675;DHT22;18276;45.520;11.018;2022-09-27T14:47:18;28.50;42.20
31675;DHT22;18276;45.520;11.018;2022-09-27T14:49:54;28.60;42.40
31675;DHT22;18276;45.520;11.018;2022-09-27T14:52:28;28.90;42.90
31675;DHT22;18276;45.520;11.018;2022-09-27T14:55:06;29.20;42.10
31675;DHT22;18276;45.520;11.018;2022-09-27T14:57:34;29.40;41.20
31675;DHT22;18276;45.520;11.018;2022-09-27T15:00:32;29.40;41.00
31675;DHT22;18276;45.520;11.018;2022-09-27T15:03:05;29.20;41.30
31675;DHT22;18276;45.520;11.018;2022-09-27T15:05:35;28.70;41.70
31675;DHT22;18276;45.520;11.018;2022-09-27T15:08:09;28.00;42.60
31675;DHT22;18276;45.520;11.018;2022-09-27T15:10:37;27.30;43.90
31675;DHT22;18276;45.520;11.018;2022-09-27T15:13:05;26.70;45.10
31675;DHT22;18276;45.520;11.018;2022-09-27T15:15:34;26.30;46.30
31675;DHT22;18276;45.520;11.018;2022-09-27T15:18:22;25.80;47.40
31675;DHT22;18276;45.520;11.018;2022-09-27T15:20:53;25.40;47.90
31675;DHT22;18276;45.520;11.018;2022-09-27T15:23:35;25.00;48.50
31675;DHT22;18276;45.520;11.018;2022-09-27T15:26:16;24.70;49.40
31675;DHT22;18276;45.520;11.018;2022-09-27T15:28:46;24.40;50.70
31675;DHT22;18276;45.520;11.018;2022-09-27T15:31:14;24.20;51.60
31675;DHT22;18276;45.520;11.018;2022-09-27T15:33:41;24.20;52.50
31675;DHT22;18276;45.520;11.018;2022-09-27T15:39:08;24.10;54.20
31675;DHT22;18276;45.520;11.018;2022-09-27T15:42:10;24.00;54.10
31675;DHT22;18276;45.520;11.018;2022-09-27T15:44:44;24.00;54.40
31675;DHT22;18276;45.520;11.018;2022-09-27T15:52:45;23.60;55.80
31675;DHT22;18276;45.520;11.018;2022-09-27T15:55:21;23.50;57.60
31675;DHT22;18276;45.520;11.018;2022-09-27T15:58:05;23.50;58.80
31675;DHT22;18276;45.520;11.018;2022-09-27T16:00:34;23.40;59.20
31675;DHT22;18276;45.520;11.018;2022-09-27T16:03:02;23.40;59.30
31675;DHT22;18276;45.520;11.018;2022-09-27T16:05:29;23.30;59.50
31675;DHT22;18276;45.520;11.018;2022-09-27T16:07:59;23.30;59.80
31675;DHT22;18276;45.520;11.018;2022-09-27T16:10:40;23.30;60.00
31675;DHT22;18276;45.520;11.018;2022-09-27T16:13:08;23.10;60.60
31675;DHT22;18276;45.520;11.018;2022-09-27T16:15:35;22.90;61.20
31675;DHT22;18276;45.520;11.018;2022-09-27T16:18:03;22.60;62.20
31675;DHT22;18276;45.520;11.018;2022-09-27T16:20:30;22.40;63.00
31675;DHT22;18276;45.520;11.018;2022-09-27T16:22:57;22.20;63.90
31675;DHT22;18276;45.520;11.018;2022-09-27T16:25:24;22.00;64.80
31675;DHT22;18276;45.520;11.018;2022-09-27T16:27:51;21.90;65.20
31675;DHT22;18276;45.520;11.018;2022-09-27T16:30:18;21.70;65.70
31675;DHT22;18276;45.520;11.018;2022-09-27T16:32:47;21.60;66.60
31675;DHT22;18276;45.520;11.018;2022-09-27T16:35:15;21.40;67.30
31675;DHT22;18276;45.520;11.018;2022-09-27T16:37:43;21.30;67.50
31675;DHT22;18276;45.520;11.018;2022-09-27T16:40:11;21.10;67.50
31675;DHT22;18276;45.520;11.018;2022-09-27T16:42:39;21.00;67.80
31675;DHT22;18276;45.520;11.018;2022-09-27T16:45:07;20.90;68.00
31675;DHT22;18276;45.520;11.018;2022-09-27T16:47:38;20.80;69.10
31675;DHT22;18276;45.520;11.018;2022-09-27T16:50:08;20.60;68.60
31675;DHT22;18276;45.520;11.018;2022-09-27T16:52:54;20.50;69.10
31675;DHT22;18276;45.520;11.018;2022-09-27T16:55:21;20.30;69.50
31675;DHT22;18276;45.520;11.018;2022-09-27T16:57:49;20.20;70.00
31675;DHT22;18276;45.520;11.018;2022-09-27T17:00:17;20.10;70.70
31675;DHT22;18276;45.520;11.018;2022-09-27T17:02:47;19.90;71.10
31675;DHT22;18276;45.520;11.018;2022-09-27T17:05:15;19.80;71.80
31675;DHT22;18276;45.520;11.018;2022-09-27T17:07:42;19.70;72.30
31675;DHT22;18276;45.520;11.018;2022-09-27T17:10:09;19.60;72.60
31675;DHT22;18276;45.520;11.018;2022-09-27T17:12:36;19.50;73.00
31675;DHT22;18276;45.520;11.018;2022-09-27T17:15:03;19.30;73.30
31675;DHT22;18276;45.520;11.018;2022-09-27T17:17:30;19.30;73.90
31675;DHT22;18276;45.520;11.018;2022-09-27T17:19:57;19.10;74.30
31675;DHT22;18276;45.520;11.018;2022-09-27T17:22:24;19.10;74.60
31675;DHT22;18276;45.520;11.018;2022-09-27T17:24:51;19.00;74.90
31675;DHT22;18276;45.520;11.018;2022-09-27T17:27:18;19.00;75.30
31675;DHT22;18276;45.520;11.018;2022-09-27T17:29:51;18.90;76.50
31675;DHT22;18276;45.520;11.018;2022-09-27T17:32:18;18.80;75.90
31675;DHT22;18276;45.520;11.018;2022-09-27T17:34:50;18.70;76.20
31675;DHT22;18276;45.520;11.018;2022-09-27T17:37:18;18.60;76.60
31675;DHT22;18276;45.520;11.018;2022-09-27T17:39:45;18.60;77.00
31675;DHT22;18276;45.520;11.018;2022-09-27T17:42:12;18.60;77.20
31675;DHT22;18276;45.520;11.018;2022-09-27T17:44:39;18.50;77.40
31675;DHT22;18276;45.520;11.018;2022-09-27T17:47:06;18.50;77.70
31675;DHT22;18276;45.520;11.018;2022-09-27T17:49:51;18.50;77.90
31675;DHT22;18276;45.520;11.018;2022-09-27T17:52:37;18.50;78.00
31675;DHT22;18276;45.520;11.018;2022-09-27T17:55:04;18.40;78.20
31675;DHT22;18276;45.520;11.018;2022-09-27T17:57:31;18.40;78.40
31675;DHT22;18276;45.520;11.018;2022-09-27T17:59:59;18.40;78.50
31675;DHT22;18276;45.520;11.018;2022-09-27T18:02:26;18.40;78.50
31675;DHT22;18276;45.520;11.018;2022-09-27T18:04:53;18.30;78.50
31675;DHT22;18276;45.520;11.018;2022-09-27T18:07:20;18.30;78.60
31675;DHT22;18276;45.520;11.018;2022-09-27T18:09:47;18.20;78.70
31675;DHT22;18276;45.520;11.018;2022-09-27T18:12:15;18.10;78.90
31675;DHT22;18276;45.520;11.018;2022-09-27T18:14:42;18.10;79.10
31675;DHT22;18276;45.520;11.018;2022-09-27T18:17:10;18.00;79.20
31675;DHT22;18276;45.520;11.018;2022-09-27T18:19:38;17.90;79.40
31675;DHT22;18276;45.520;11.018;2022-09-27T18:22:05;17.90;79.40
31675;DHT22;18276;45.520;11.018;2022-09-27T18:24:33;17.80;79.50
31675;DHT22;18276;45.520;11.018;2022-09-27T18:27:00;17.70;79.50
31675;DHT22;18276;45.520;11.018;2022-09-27T18:29:28;17.70;79.60
31675;DHT22;18276;45.520;11.018;2022-09-27T18:31:55;17.60;79.60
31675;DHT22;18276;45.520;11.018;2022-09-27T18:34:22;17.60;79.70
31675;DHT22;18276;45.520;11.018;2022-09-27T18:36:50;17.60;79.70